GAF514 ETNT-EDDC
Flight info
| Callsign | GAF514 |
|---|---|
| Flight time | 0h 51m |
| Altitude | 39000 |
| Route | OPWOT Z612 WSN Z88 SAS L986 BOLBO M748 OSKAN OSKAN4B |
| Aircraft | A319/M-SDE3FGHIRWY/LB1 |
Departure
| Time | 2026-05-08 14:54 |
|---|---|
| Airport | Wittmundhafen Air Base (ETNT) |
Arrival
| Time | 2026-05-08 15:45 |
|---|---|
| Airport | Dresden Airport (EDDC) |
| Time | Latitude | Longitude | Altitude | Speed | Heading |
|---|---|---|---|---|---|
| 2026-05-08 14:41 | 53.54739 | 7.64874 | 34 ft | 0 kts | 122° |
| 2026-05-08 14:51 | 53.54732 | 7.64903 | 32 ft | 6 kts | 97° |
| 2026-05-08 14:51 | 53.54741 | 7.64990 | 34 ft | 7 kts | 88° |
| 2026-05-08 14:52 | 53.54722 | 7.65052 | 33 ft | 9 kts | 122° |
| 2026-05-08 14:52 | 53.54612 | 7.65348 | 34 ft | 3 kts | 71° |
| 2026-05-08 14:52 | 53.54613 | 7.65353 | 34 ft | 0 kts | 76° |
| 2026-05-08 14:53 | 53.54616 | 7.65376 | 36 ft | 9 kts | 77° |
| 2026-05-08 14:53 | 53.54672 | 7.65804 | 37 ft | 76 kts | 78° |
| 2026-05-08 14:53 | 53.54834 | 7.67072 | 39 ft | 143 kts | 78° |
| 2026-05-08 14:54 | 53.55062 | 7.68783 | 683 ft | 150 kts | 81° |
| 2026-05-08 14:54 | 53.55266 | 7.70471 | 1635 ft | 146 kts | 79° |
| 2026-05-08 14:54 | 53.55483 | 7.72248 | 2184 ft | 167 kts | 79° |
| 2026-05-08 14:54 | 53.55723 | 7.74306 | 2709 ft | 191 kts | 82° |
| 2026-05-08 14:55 | 53.55470 | 7.76673 | 3246 ft | 225 kts | 112° |
| 2026-05-08 14:55 | 53.54867 | 7.79261 | 4075 ft | 248 kts | 109° |
| 2026-05-08 14:55 | 53.54302 | 7.81995 | 5366 ft | 250 kts | 109° |
| 2026-05-08 14:55 | 53.53752 | 7.84821 | 6523 ft | 258 kts | 109° |
| 2026-05-08 14:56 | 53.53185 | 7.87713 | 7597 ft | 264 kts | 109° |
| 2026-05-08 14:56 | 53.52596 | 7.90687 | 8657 ft | 272 kts | 110° |
| 2026-05-08 14:56 | 53.51985 | 7.93735 | 9672 ft | 279 kts | 110° |
| 2026-05-08 14:56 | 53.51348 | 7.96882 | 10527 ft | 293 kts | 110° |
| 2026-05-08 14:57 | 53.50666 | 8.00244 | 10977 ft | 317 kts | 110° |
| 2026-05-08 14:57 | 53.49925 | 8.03883 | 11343 ft | 341 kts | 110° |
| 2026-05-08 14:57 | 53.49129 | 8.07785 | 11610 ft | 365 kts | 110° |
| 2026-05-08 14:57 | 53.48279 | 8.11940 | 11786 ft | 387 kts | 109° |
| 2026-05-08 14:58 | 53.47394 | 8.16258 | 12108 ft | 402 kts | 109° |
| 2026-05-08 14:58 | 53.46475 | 8.20741 | 12710 ft | 409 kts | 109° |
| 2026-05-08 14:58 | 53.45542 | 8.25293 | 13364 ft | 415 kts | 109° |
| 2026-05-08 14:58 | 53.44593 | 8.29899 | 14015 ft | 420 kts | 109° |
| 2026-05-08 14:59 | 53.43630 | 8.34557 | 14586 ft | 425 kts | 110° |
| 2026-05-08 14:59 | 53.41666 | 8.43998 | 15712 ft | 433 kts | 110° |
| 2026-05-08 14:59 | 53.40668 | 8.48772 | 16261 ft | 436 kts | 110° |
| 2026-05-08 15:00 | 53.39819 | 8.53677 | 16806 ft | 440 kts | 104° |
| 2026-05-08 15:00 | 53.39075 | 8.58671 | 17335 ft | 444 kts | 104° |
| 2026-05-08 15:00 | 53.38312 | 8.63769 | 17864 ft | 447 kts | 104° |
| 2026-05-08 15:00 | 53.37559 | 8.68769 | 18369 ft | 450 kts | 104° |
| 2026-05-08 15:01 | 53.36766 | 8.73930 | 18830 ft | 454 kts | 106° |
| 2026-05-08 15:01 | 53.35626 | 8.78862 | 19271 ft | 456 kts | 117° |
| 2026-05-08 15:01 | 53.33985 | 8.83425 | 19701 ft | 458 kts | 127° |
| 2026-05-08 15:01 | 53.31899 | 8.87457 | 20126 ft | 459 kts | 137° |
| 2026-05-08 15:02 | 53.29425 | 8.90844 | 20520 ft | 460 kts | 147° |
| 2026-05-08 15:02 | 53.26682 | 8.93460 | 20910 ft | 461 kts | 156° |
| 2026-05-08 15:02 | 53.23743 | 8.95662 | 21282 ft | 463 kts | 158° |
| 2026-05-08 15:02 | 53.20796 | 8.97860 | 21605 ft | 466 kts | 158° |
| 2026-05-08 15:03 | 53.17832 | 9.00071 | 21964 ft | 468 kts | 158° |
| 2026-05-08 15:03 | 53.14853 | 9.02291 | 22278 ft | 470 kts | 158° |
| 2026-05-08 15:03 | 53.11861 | 9.04516 | 22587 ft | 472 kts | 158° |
| 2026-05-08 15:03 | 53.09831 | 9.06025 | 22791 ft | 474 kts | 158° |
| 2026-05-08 15:04 | 53.06817 | 9.08261 | 23087 ft | 476 kts | 158° |
| 2026-05-08 15:04 | 53.03783 | 9.10506 | 23393 ft | 478 kts | 158° |
| 2026-05-08 15:04 | 53.00738 | 9.12753 | 23682 ft | 480 kts | 158° |
| 2026-05-08 15:04 | 52.97682 | 9.15005 | 23943 ft | 481 kts | 158° |
| 2026-05-08 15:05 | 52.94616 | 9.17262 | 24180 ft | 483 kts | 158° |
| 2026-05-08 15:05 | 52.91544 | 9.19524 | 24421 ft | 484 kts | 158° |
| 2026-05-08 15:05 | 52.88449 | 9.21771 | 24659 ft | 485 kts | 159° |
| 2026-05-08 15:05 | 52.85312 | 9.23853 | 24920 ft | 486 kts | 161° |
| 2026-05-08 15:06 | 52.82147 | 9.25771 | 25214 ft | 484 kts | 162° |
| 2026-05-08 15:06 | 52.78974 | 9.27592 | 25562 ft | 483 kts | 163° |
| 2026-05-08 15:06 | 52.75806 | 9.29384 | 25751 ft | 478 kts | 163° |
| 2026-05-08 15:06 | 52.72660 | 9.31182 | 25932 ft | 480 kts | 162° |
| 2026-05-08 15:07 | 52.69506 | 9.33022 | 26272 ft | 480 kts | 162° |
| 2026-05-08 15:07 | 52.66367 | 9.34892 | 26669 ft | 479 kts | 161° |
| 2026-05-08 15:07 | 52.63327 | 9.37159 | 27070 ft | 481 kts | 153° |
| 2026-05-08 15:07 | 52.60514 | 9.40148 | 27495 ft | 482 kts | 144° |
| 2026-05-08 15:08 | 52.57925 | 9.43666 | 27931 ft | 482 kts | 141° |
| 2026-05-08 15:08 | 52.55367 | 9.47208 | 28368 ft | 481 kts | 142° |
| 2026-05-08 15:08 | 52.52803 | 9.50730 | 28831 ft | 480 kts | 142° |
| 2026-05-08 15:08 | 52.50238 | 9.54235 | 29307 ft | 479 kts | 142° |
| 2026-05-08 15:09 | 52.47682 | 9.57723 | 29787 ft | 478 kts | 142° |
| 2026-05-08 15:09 | 52.45129 | 9.61199 | 30273 ft | 477 kts | 142° |
| 2026-05-08 15:09 | 52.42582 | 9.64662 | 30696 ft | 476 kts | 142° |
| 2026-05-08 15:09 | 52.40037 | 9.68125 | 31116 ft | 475 kts | 142° |
| 2026-05-08 15:10 | 52.37505 | 9.71579 | 31541 ft | 474 kts | 142° |
| 2026-05-08 15:10 | 52.34972 | 9.75026 | 31971 ft | 473 kts | 142° |
| 2026-05-08 15:10 | 52.32444 | 9.78458 | 32412 ft | 472 kts | 142° |
| 2026-05-08 15:10 | 52.29936 | 9.81907 | 32859 ft | 472 kts | 140° |
| 2026-05-08 15:11 | 52.27684 | 9.85819 | 33293 ft | 474 kts | 130° |
| 2026-05-08 15:11 | 52.25831 | 9.90286 | 33746 ft | 476 kts | 121° |
| 2026-05-08 15:11 | 52.24446 | 9.95194 | 34191 ft | 478 kts | 111° |
| 2026-05-08 15:11 | 52.23564 | 10.00419 | 34565 ft | 479 kts | 102° |
| 2026-05-08 15:12 | 52.22912 | 10.05755 | 34938 ft | 479 kts | 102° |
| 2026-05-08 15:12 | 52.22247 | 10.11075 | 35316 ft | 479 kts | 102° |
| 2026-05-08 15:12 | 52.21567 | 10.16399 | 35670 ft | 479 kts | 103° |
| 2026-05-08 15:12 | 52.20878 | 10.21705 | 36023 ft | 479 kts | 103° |
| 2026-05-08 15:13 | 52.20181 | 10.27024 | 36370 ft | 480 kts | 103° |
| 2026-05-08 15:13 | 52.19486 | 10.32348 | 36708 ft | 480 kts | 103° |
| 2026-05-08 15:13 | 52.18793 | 10.37667 | 37042 ft | 480 kts | 103° |
| 2026-05-08 15:13 | 52.18101 | 10.42990 | 37372 ft | 480 kts | 103° |
| 2026-05-08 15:14 | 52.17407 | 10.48319 | 37693 ft | 481 kts | 103° |
| 2026-05-08 15:14 | 52.16721 | 10.53571 | 38005 ft | 481 kts | 103° |
| 2026-05-08 15:14 | 52.16014 | 10.58962 | 38327 ft | 481 kts | 103° |
| 2026-05-08 15:14 | 52.15320 | 10.64219 | 38636 ft | 481 kts | 103° |
| 2026-05-08 15:15 | 52.14603 | 10.69615 | 38918 ft | 481 kts | 103° |
| 2026-05-08 15:15 | 52.13902 | 10.74866 | 39111 ft | 482 kts | 103° |
| 2026-05-08 15:15 | 52.12472 | 10.85522 | 39185 ft | 482 kts | 103° |
| 2026-05-08 15:16 | 52.11034 | 10.96226 | 39178 ft | 481 kts | 103° |
| 2026-05-08 15:16 | 52.09599 | 11.06860 | 39182 ft | 481 kts | 103° |
| 2026-05-08 15:17 | 52.08166 | 11.17402 | 39180 ft | 481 kts | 103° |
| 2026-05-08 15:17 | 52.06711 | 11.28012 | 39187 ft | 481 kts | 103° |
| 2026-05-08 15:18 | 52.05240 | 11.38612 | 39193 ft | 481 kts | 103° |
| 2026-05-08 15:18 | 52.03763 | 11.49210 | 39194 ft | 481 kts | 104° |
| 2026-05-08 15:19 | 52.02283 | 11.59805 | 39191 ft | 481 kts | 104° |
| 2026-05-08 15:19 | 52.00791 | 11.70386 | 39194 ft | 481 kts | 104° |
| 2026-05-08 15:20 | 51.99280 | 11.80959 | 39193 ft | 481 kts | 104° |
| 2026-05-08 15:20 | 51.97777 | 11.91533 | 39190 ft | 481 kts | 104° |
| 2026-05-08 15:21 | 51.96279 | 12.02097 | 39188 ft | 481 kts | 104° |
| 2026-05-08 15:21 | 51.94764 | 12.12659 | 39191 ft | 481 kts | 104° |
| 2026-05-08 15:22 | 51.93233 | 12.23202 | 39192 ft | 481 kts | 104° |
| 2026-05-08 15:22 | 51.91683 | 12.33733 | 39191 ft | 480 kts | 104° |
| 2026-05-08 15:23 | 51.90112 | 12.44249 | 39192 ft | 480 kts | 104° |
| 2026-05-08 15:23 | 51.88554 | 12.54755 | 39009 ft | 479 kts | 104° |
| 2026-05-08 15:24 | 51.87781 | 12.59992 | 38766 ft | 479 kts | 104° |
| 2026-05-08 15:24 | 51.87003 | 12.65260 | 38081 ft | 483 kts | 104° |
| 2026-05-08 15:24 | 51.86218 | 12.70553 | 37598 ft | 484 kts | 104° |
| 2026-05-08 15:24 | 51.85432 | 12.75830 | 37154 ft | 483 kts | 104° |
| 2026-05-08 15:25 | 51.84638 | 12.81117 | 36620 ft | 483 kts | 104° |
| 2026-05-08 15:25 | 51.83838 | 12.86412 | 35938 ft | 487 kts | 104° |
| 2026-05-08 15:25 | 51.83030 | 12.91746 | 35307 ft | 489 kts | 104° |
| 2026-05-08 15:25 | 51.82220 | 12.97081 | 34736 ft | 489 kts | 104° |
| 2026-05-08 15:26 | 51.81407 | 13.02425 | 34146 ft | 489 kts | 104° |
| 2026-05-08 15:26 | 51.80461 | 13.07691 | 33427 ft | 488 kts | 111° |
| 2026-05-08 15:26 | 51.79067 | 13.12675 | 32690 ft | 487 kts | 120° |
| 2026-05-08 15:26 | 51.77244 | 13.17276 | 31927 ft | 485 kts | 128° |
| 2026-05-08 15:27 | 51.75036 | 13.21391 | 31125 ft | 484 kts | 136° |
| 2026-05-08 15:27 | 51.72554 | 13.25044 | 30284 ft | 484 kts | 139° |
| 2026-05-08 15:27 | 51.70032 | 13.28659 | 29226 ft | 486 kts | 139° |
| 2026-05-08 15:27 | 51.67503 | 13.32293 | 28115 ft | 487 kts | 139° |
| 2026-05-08 15:28 | 51.64972 | 13.35934 | 26966 ft | 489 kts | 139° |
| 2026-05-08 15:28 | 51.62428 | 13.39583 | 25756 ft | 491 kts | 139° |
| 2026-05-08 15:28 | 51.59862 | 13.43243 | 24827 ft | 494 kts | 139° |
| 2026-05-08 15:28 | 51.57308 | 13.46874 | 23894 ft | 488 kts | 139° |
| 2026-05-08 15:29 | 51.54779 | 13.50464 | 22890 ft | 482 kts | 140° |
| 2026-05-08 15:29 | 51.52288 | 13.53988 | 21865 ft | 474 kts | 140° |
| 2026-05-08 15:29 | 51.49820 | 13.57443 | 20806 ft | 466 kts | 142° |
| 2026-05-08 15:29 | 51.47137 | 13.60251 | 19825 ft | 457 kts | 154° |
| 2026-05-08 15:30 | 51.44205 | 13.62060 | 18857 ft | 447 kts | 166° |
| 2026-05-08 15:30 | 51.41170 | 13.62834 | 17817 ft | 439 kts | 178° |
| 2026-05-08 15:30 | 51.38136 | 13.62893 | 16728 ft | 432 kts | 181° |
| 2026-05-08 15:30 | 51.35148 | 13.62918 | 15700 ft | 426 kts | 181° |
| 2026-05-08 15:31 | 51.32211 | 13.62951 | 14609 ft | 419 kts | 181° |
| 2026-05-08 15:31 | 51.29318 | 13.62994 | 13488 ft | 413 kts | 181° |
| 2026-05-08 15:31 | 51.26461 | 13.63041 | 12359 ft | 408 kts | 180° |
| 2026-05-08 15:31 | 51.23667 | 13.63084 | 11852 ft | 390 kts | 180° |
| 2026-05-08 15:32 | 51.21042 | 13.62839 | 11492 ft | 367 kts | 192° |
| 2026-05-08 15:32 | 51.18710 | 13.61647 | 11120 ft | 341 kts | 206° |
| 2026-05-08 15:32 | 51.16770 | 13.59702 | 10751 ft | 320 kts | 220° |
| 2026-05-08 15:32 | 51.15124 | 13.57447 | 10397 ft | 305 kts | 222° |
| 2026-05-08 15:33 | 51.13549 | 13.55284 | 10025 ft | 293 kts | 221° |
| 2026-05-08 15:33 | 51.12031 | 13.53205 | 9623 ft | 283 kts | 221° |
| 2026-05-08 15:33 | 51.10552 | 13.51182 | 9133 ft | 279 kts | 221° |
| 2026-05-08 15:33 | 51.09087 | 13.49183 | 8613 ft | 276 kts | 221° |
| 2026-05-08 15:34 | 51.07634 | 13.47205 | 8099 ft | 273 kts | 221° |
| 2026-05-08 15:34 | 51.06194 | 13.45251 | 7615 ft | 271 kts | 221° |
| 2026-05-08 15:34 | 51.04764 | 13.43312 | 7128 ft | 269 kts | 221° |
| 2026-05-08 15:34 | 51.03357 | 13.41400 | 6825 ft | 260 kts | 221° |
| 2026-05-08 15:35 | 51.02022 | 13.39584 | 6697 ft | 246 kts | 221° |
| 2026-05-08 15:35 | 51.00747 | 13.37856 | 6574 ft | 235 kts | 221° |
| 2026-05-08 15:35 | 50.99527 | 13.36224 | 6378 ft | 226 kts | 221° |
| 2026-05-08 15:35 | 50.98330 | 13.34631 | 6065 ft | 223 kts | 221° |
| 2026-05-08 15:36 | 50.97137 | 13.33052 | 5833 ft | 223 kts | 221° |
| 2026-05-08 15:36 | 50.96295 | 13.32121 | 5714 ft | 224 kts | 206° |
| 2026-05-08 15:36 | 50.94253 | 13.31951 | 5447 ft | 227 kts | 161° |
| 2026-05-08 15:36 | 50.92943 | 13.33351 | 5227 ft | 230 kts | 138° |
| 2026-05-08 15:37 | 50.91799 | 13.35129 | 5013 ft | 230 kts | 135° |
| 2026-05-08 15:37 | 50.90674 | 13.36936 | 4819 ft | 230 kts | 135° |
| 2026-05-08 15:37 | 50.89573 | 13.38768 | 4605 ft | 230 kts | 129° |
| 2026-05-08 15:37 | 50.88972 | 13.41063 | 4413 ft | 228 kts | 93° |
| 2026-05-08 15:38 | 50.89289 | 13.43456 | 4268 ft | 221 kts | 58° |
| 2026-05-08 15:38 | 50.90299 | 13.45218 | 4136 ft | 215 kts | 38° |
| 2026-05-08 15:38 | 50.91423 | 13.46727 | 4035 ft | 208 kts | 38° |
| 2026-05-08 15:38 | 50.92503 | 13.48185 | 3999 ft | 199 kts | 39° |
| 2026-05-08 15:39 | 50.93556 | 13.49614 | 4005 ft | 199 kts | 39° |
| 2026-05-08 15:39 | 50.94593 | 13.51023 | 4006 ft | 199 kts | 39° |
| 2026-05-08 15:39 | 50.95657 | 13.52471 | 4008 ft | 199 kts | 39° |
| 2026-05-08 15:39 | 50.96692 | 13.53881 | 4007 ft | 199 kts | 39° |
| 2026-05-08 15:40 | 50.97739 | 13.55307 | 4006 ft | 198 kts | 39° |
| 2026-05-08 15:40 | 50.98784 | 13.56732 | 4007 ft | 198 kts | 39° |
| 2026-05-08 15:40 | 50.99845 | 13.58179 | 4012 ft | 198 kts | 39° |
| 2026-05-08 15:40 | 51.00864 | 13.59571 | 3913 ft | 188 kts | 39° |
| 2026-05-08 15:41 | 51.01842 | 13.60907 | 3673 ft | 183 kts | 39° |
| 2026-05-08 15:41 | 51.02792 | 13.62205 | 3442 ft | 178 kts | 39° |
| 2026-05-08 15:41 | 51.03707 | 13.63456 | 3204 ft | 173 kts | 40° |
| 2026-05-08 15:41 | 51.04613 | 13.64696 | 2964 ft | 165 kts | 40° |
| 2026-05-08 15:42 | 51.05456 | 13.65850 | 2744 ft | 156 kts | 40° |
| 2026-05-08 15:42 | 51.05982 | 13.66571 | 2618 ft | 144 kts | 39° |
| 2026-05-08 15:42 | 51.06914 | 13.67847 | 2368 ft | 124 kts | 39° |
| 2026-05-08 15:42 | 51.07554 | 13.68725 | 2208 ft | 119 kts | 38° |
| 2026-05-08 15:43 | 51.07976 | 13.69302 | 2100 ft | 118 kts | 39° |
| 2026-05-08 15:43 | 51.08794 | 13.70427 | 1892 ft | 116 kts | 39° |
| 2026-05-08 15:43 | 51.09408 | 13.71270 | 1687 ft | 116 kts | 40° |
| 2026-05-08 15:43 | 51.09821 | 13.71837 | 1545 ft | 116 kts | 41° |
| 2026-05-08 15:44 | 51.10429 | 13.72674 | 1384 ft | 116 kts | 41° |
| 2026-05-08 15:44 | 51.11038 | 13.73504 | 1201 ft | 115 kts | 41° |
| 2026-05-08 15:44 | 51.11646 | 13.74337 | 1034 ft | 116 kts | 41° |
| 2026-05-08 15:44 | 51.12252 | 13.75175 | 848 ft | 114 kts | 42° |
| 2026-05-08 15:45 | 51.12824 | 13.75960 | 753 ft | 97 kts | 39° |
| 2026-05-08 15:45 | 51.13243 | 13.76535 | 751 ft | 63 kts | 40° |
| 2026-05-08 15:45 | 51.13527 | 13.76925 | 748 ft | 46 kts | 41° |
| 2026-05-08 15:45 | 51.13730 | 13.77206 | 752 ft | 32 kts | 41° |
| 2026-05-08 15:46 | 51.13872 | 13.77400 | 750 ft | 22 kts | 41° |
| 2026-05-08 15:46 | 51.13895 | 13.77519 | 751 ft | 13 kts | 121° |
| 2026-05-08 15:46 | 51.13850 | 13.77605 | 746 ft | 2 kts | 130° |
| 2026-05-08 15:46 | 51.13824 | 13.77655 | 749 ft | 10 kts | 130° |
| 2026-05-08 15:47 | 51.13770 | 13.77729 | 751 ft | 8 kts | 181° |
| 2026-05-08 15:47 | 51.13705 | 13.77652 | 750 ft | 15 kts | 221° |
| 2026-05-08 15:47 | 51.13608 | 13.77519 | 750 ft | 22 kts | 220° |
| 2026-05-08 15:47 | 51.13474 | 13.77333 | 751 ft | 29 kts | 221° |
| 2026-05-08 15:48 | 51.13213 | 13.76975 | 750 ft | 13 kts | 221° |
| 2026-05-08 15:48 | 51.13126 | 13.76854 | 748 ft | 20 kts | 221° |
| 2026-05-08 15:48 | 51.13011 | 13.76695 | 749 ft | 16 kts | 220° |
| 2026-05-08 15:49 | 51.12961 | 13.76628 | 749 ft | 11 kts | 220° |
| 2026-05-08 15:49 | 51.12922 | 13.76596 | 751 ft | 4 kts | 161° |
| 2026-05-08 15:49 | 51.12890 | 13.76650 | 749 ft | 6 kts | 131° |
| 2026-05-08 15:49 | 51.12889 | 13.76652 | 749 ft | 0 kts | 131° |